createdAt,value
2019-01-23T00:00:25.709Z,1.00
2019-01-23T00:02:54.137Z,1.00
2019-01-23T00:05:22.559Z,1.00
2019-01-23T00:07:51.002Z,0.90
2019-01-23T00:10:19.405Z,1.00
2019-01-23T00:12:47.848Z,1.00
2019-01-23T00:15:16.254Z,1.00
2019-01-23T00:17:44.694Z,1.00
2019-01-23T00:20:13.250Z,1.00
2019-01-23T00:22:41.658Z,1.00
2019-01-23T00:25:10.736Z,1.00
2019-01-23T00:27:39.141Z,1.00
2019-01-23T00:30:10.709Z,1.00
2019-01-23T00:32:39.130Z,0.90
2019-01-23T00:35:08.024Z,0.90
2019-01-23T00:37:36.436Z,0.90
2019-01-23T00:40:16.286Z,0.90
2019-01-23T00:42:44.685Z,0.90
2019-01-23T00:45:15.544Z,0.80
2019-01-23T00:47:44.035Z,0.70
2019-01-23T00:50:14.096Z,0.70
2019-01-23T00:52:42.518Z,0.70
2019-01-23T00:55:16.152Z,0.70
2019-01-23T00:57:44.552Z,0.70
2019-01-23T01:00:18.966Z,0.60
2019-01-23T01:02:47.645Z,0.60
2019-01-23T01:05:16.607Z,0.70
2019-01-23T01:07:45.091Z,0.60
2019-01-23T01:10:16.478Z,0.60
2019-01-23T01:12:44.877Z,0.60
2019-01-23T01:15:13.859Z,0.60
2019-01-23T01:17:42.409Z,0.50
2019-01-23T01:20:15.448Z,0.40
2019-01-23T01:22:44.011Z,0.40
2019-01-23T01:25:15.077Z,0.40
2019-01-23T01:27:43.489Z,0.40
2019-01-23T01:30:17.725Z,0.30
2019-01-23T01:32:46.418Z,0.20
2019-01-23T01:35:14.854Z,0.20
2019-01-23T01:37:43.333Z,0.20
2019-01-23T01:40:14.123Z,0.20
2019-01-23T01:42:42.543Z,0.30
2019-01-23T01:45:12.397Z,0.30
2019-01-23T01:47:40.808Z,0.40
2019-01-23T01:50:12.343Z,0.40
2019-01-23T01:52:40.760Z,0.40
2019-01-23T01:55:10.040Z,0.40
2019-01-23T01:57:38.463Z,0.40
2019-01-23T02:00:09.960Z,0.40
2019-01-23T02:02:38.397Z,0.30
2019-01-23T02:05:07.557Z,0.30
2019-01-23T02:07:35.965Z,0.20
2019-01-23T02:10:07.839Z,0.20
2019-01-23T02:12:36.244Z,0.20
2019-01-23T02:15:07.614Z,0.20
2019-01-23T02:17:36.036Z,0.20
2019-01-23T02:20:07.536Z,0.20
2019-01-23T02:22:36.249Z,0.10
2019-01-23T02:25:06.317Z,0.00
2019-01-23T02:27:34.742Z,0.00
2019-01-23T02:30:04.522Z,0.00
2019-01-23T02:32:33.893Z,-0.10
2019-01-23T02:35:02.335Z,-0.10
2019-01-23T02:37:30.750Z,-0.10
2019-01-23T02:39:59.194Z,-0.10
2019-01-23T02:42:27.638Z,-0.20
2019-01-23T02:44:56.065Z,-0.20
2019-01-23T02:47:24.506Z,-0.20
2019-01-23T02:49:52.949Z,-0.20
2019-01-23T02:52:22.353Z,-0.30
2019-01-23T02:54:50.795Z,-0.30
2019-01-23T02:57:19.244Z,-0.40
2019-01-23T02:59:47.669Z,-0.50
2019-01-23T03:02:16.090Z,-0.50
2019-01-23T03:04:44.529Z,-0.60
2019-01-23T03:07:12.947Z,-0.70
2019-01-23T03:09:41.460Z,-0.70
2019-01-23T03:12:09.877Z,-0.70
2019-01-23T03:14:38.295Z,-0.70
2019-01-23T03:17:06.744Z,-0.70
2019-01-23T03:19:35.633Z,-0.80
2019-01-23T03:22:04.148Z,-0.90
2019-01-23T03:24:32.580Z,-0.90
2019-01-23T03:27:01.055Z,-0.90
2019-01-23T03:29:29.514Z,-0.90
2019-01-23T03:31:57.954Z,-0.90
2019-01-23T03:34:26.368Z,-0.90
2019-01-23T03:36:54.806Z,-0.90
2019-01-23T03:39:23.229Z,-1.00
2019-01-23T03:41:51.673Z,-1.00
2019-01-23T03:44:20.093Z,-1.00
2019-01-23T03:46:48.612Z,-1.10
2019-01-23T03:49:17.033Z,-1.10
2019-01-23T03:51:45.463Z,-1.20
2019-01-23T03:54:13.905Z,-1.30
2019-01-23T03:56:42.462Z,-1.40
2019-01-23T03:59:10.902Z,-1.50
2019-01-23T04:01:39.408Z,-1.50
2019-01-23T04:04:07.996Z,-1.60
2019-01-23T04:06:36.409Z,-1.60
2019-01-23T04:09:06.987Z,-1.70
2019-01-23T04:11:35.416Z,-1.70
2019-01-23T04:14:04.118Z,-1.70
2019-01-23T04:16:32.546Z,-1.70
2019-01-23T04:19:00.994Z,-1.70
2019-01-23T04:21:29.406Z,-1.80
2019-01-23T04:23:57.851Z,-1.80
2019-01-23T04:26:26.327Z,-1.80
2019-01-23T04:28:54.792Z,-1.80
2019-01-23T04:31:23.205Z,-1.80
2019-01-23T04:33:51.641Z,-1.90
2019-01-23T04:36:20.090Z,-1.90
2019-01-23T04:38:48.544Z,-1.90
2019-01-23T04:41:16.965Z,-1.90
2019-01-23T04:43:45.725Z,-1.90
2019-01-23T04:46:15.056Z,-1.90
2019-01-23T04:48:43.492Z,-2.00
2019-01-23T04:51:13.554Z,-2.00
2019-01-23T04:53:43.639Z,-2.00
2019-01-23T04:56:12.056Z,-2.10
2019-01-23T04:58:40.510Z,-2.30
2019-01-23T05:01:09.833Z,-2.30
2019-01-23T05:03:38.265Z,-2.40
2019-01-23T05:06:06.753Z,-2.40
2019-01-23T05:08:35.208Z,-2.30
2019-01-23T05:11:03.688Z,-2.30
2019-01-23T05:13:33.073Z,-2.30
2019-01-23T05:16:01.504Z,-2.30
2019-01-23T05:18:29.947Z,-2.30
2019-01-23T05:20:58.447Z,-2.40
2019-01-23T05:23:26.895Z,-2.50
2019-01-23T05:25:55.323Z,-2.50
2019-01-23T05:28:23.756Z,-2.60
2019-01-23T05:30:52.182Z,-2.60
2019-01-23T05:33:20.636Z,-2.70
2019-01-23T05:35:49.056Z,-2.80
2019-01-23T05:38:17.514Z,-2.90
2019-01-23T05:40:45.939Z,-3.00
2019-01-23T05:43:14.370Z,-3.00
2019-01-23T05:45:42.853Z,-3.00
2019-01-23T05:48:11.289Z,-3.00
2019-01-23T05:50:39.705Z,-3.00
2019-01-23T05:53:08.178Z,-3.10
2019-01-23T05:55:36.601Z,-3.20
2019-01-23T05:58:05.081Z,-3.10
2019-01-23T06:00:33.510Z,-3.20
2019-01-23T06:03:01.931Z,-3.40
2019-01-23T06:05:30.362Z,-3.30
2019-01-23T06:07:58.777Z,-3.40
2019-01-23T06:10:27.202Z,-3.40
2019-01-23T06:12:55.628Z,-3.50
2019-01-23T06:15:24.060Z,-3.60
2019-01-23T06:17:52.499Z,-3.60
2019-01-23T06:20:21.556Z,-3.60
2019-01-23T06:22:50.007Z,-3.70
2019-01-23T06:25:18.556Z,-3.70
2019-01-23T06:27:46.997Z,-3.70
2019-01-23T06:30:20.734Z,-3.60
2019-01-23T06:32:49.295Z,-3.60
2019-01-23T06:35:21.402Z,-3.60
2019-01-23T06:37:49.827Z,-3.60
2019-01-23T06:40:19.003Z,-3.60
2019-01-23T06:42:47.413Z,-3.60
2019-01-23T06:45:19.448Z,-3.70
2019-01-23T06:47:49.298Z,-3.60
2019-01-23T06:50:19.581Z,-3.70
2019-01-23T06:52:48.079Z,-3.60
2019-01-23T06:55:16.775Z,-3.60
2019-01-23T06:57:45.185Z,-3.60
2019-01-23T07:00:19.983Z,-3.70
2019-01-23T07:02:49.057Z,-3.70
2019-01-23T07:05:17.626Z,-3.60
2019-01-23T07:07:46.204Z,-3.60
2019-01-23T07:10:22.952Z,-3.70
2019-01-23T07:12:51.386Z,-3.70
2019-01-23T07:15:20.360Z,-3.70
2019-01-23T07:17:48.772Z,-3.70
2019-01-23T07:20:24.217Z,-3.70
2019-01-23T07:22:52.639Z,-3.80
2019-01-23T07:25:21.262Z,-3.70
2019-01-23T07:27:49.733Z,-3.70
2019-01-23T07:30:27.147Z,-3.70
2019-01-23T07:32:55.549Z,-3.70
2019-01-23T07:35:24.077Z,-3.70
2019-01-23T07:37:52.485Z,-3.80
2019-01-23T07:40:20.921Z,-3.80
2019-01-23T07:42:49.336Z,-3.70
2019-01-23T07:45:26.145Z,-3.60
2019-01-23T07:47:54.694Z,-3.50
2019-01-23T07:50:23.215Z,-3.60
2019-01-23T07:52:51.692Z,-3.50
2019-01-23T07:55:21.076Z,-3.50
2019-01-23T07:57:49.556Z,-3.50
2019-01-23T08:00:22.890Z,-3.50
2019-01-23T08:02:51.647Z,-3.40
2019-01-23T08:05:22.803Z,-3.40
2019-01-23T08:07:51.776Z,-3.40
2019-01-23T08:10:21.542Z,-3.40
2019-01-23T08:12:50.120Z,-3.40
2019-01-23T08:15:24.513Z,-3.30
2019-01-23T08:17:52.933Z,-3.30
2019-01-23T08:20:26.339Z,-3.30
2019-01-23T08:22:54.759Z,-3.20
2019-01-23T08:25:23.533Z,-3.10
2019-01-23T08:27:52.186Z,-3.10
2019-01-23T08:30:23.281Z,-3.00
2019-01-23T08:32:51.680Z,-2.90
2019-01-23T08:35:21.552Z,-2.90
2019-01-23T08:37:50.109Z,-2.80
2019-01-23T08:40:19.089Z,-2.80
2019-01-23T08:42:47.505Z,-2.70
2019-01-23T08:45:16.387Z,-2.60
2019-01-23T08:47:44.882Z,-2.40
2019-01-23T08:50:22.807Z,-2.40
2019-01-23T08:52:51.220Z,-2.40
2019-01-23T08:55:19.657Z,-2.40
2019-01-23T08:57:48.091Z,-2.30
2019-01-23T09:00:17.890Z,-2.20
2019-01-23T09:02:46.452Z,-2.10
2019-01-23T09:05:15.126Z,-2.00
2019-01-23T09:07:43.685Z,-1.90
2019-01-23T09:10:15.333Z,-1.80
2019-01-23T09:12:43.767Z,-1.70
2019-01-23T09:15:15.011Z,-1.60
2019-01-23T09:17:43.435Z,-1.50
2019-01-23T09:20:14.967Z,-1.50
2019-01-23T09:22:43.460Z,-1.50
2019-01-23T09:25:14.739Z,-1.60
2019-01-23T09:27:43.148Z,-1.50
2019-01-23T09:30:23.396Z,-1.40
2019-01-23T09:33:14.442Z,-1.40
2019-01-23T09:35:51.962Z,-1.20
2019-01-23T09:38:23.474Z,-1.00
2019-01-23T09:41:09.865Z,-0.90
2019-01-23T09:44:02.615Z,-0.70
2019-01-23T09:46:39.654Z,-0.60
2019-01-23T09:49:19.877Z,-0.30
2019-01-23T09:52:00.248Z,-0.10
2019-01-23T09:54:29.034Z,0.00
2019-01-23T09:56:57.448Z,0.20
2019-01-23T09:59:25.866Z,0.20
2019-01-23T10:01:54.307Z,0.10
2019-01-23T10:04:22.739Z,0.20
2019-01-23T10:06:51.165Z,0.50
2019-01-23T10:09:19.591Z,0.60
2019-01-23T10:11:48.012Z,0.60
2019-01-23T10:14:16.421Z,0.70
2019-01-23T10:16:44.852Z,0.80
2019-01-23T10:19:13.276Z,1.00
2019-01-23T10:21:41.697Z,1.00
2019-01-23T10:24:10.184Z,1.20
2019-01-23T10:26:39.510Z,1.40
2019-01-23T10:29:07.966Z,1.50
2019-01-23T10:31:36.395Z,1.40
2019-01-23T10:34:05.141Z,1.50
2019-01-23T10:36:33.650Z,1.40
2019-01-23T10:39:02.066Z,1.40
2019-01-23T10:41:30.497Z,1.30
2019-01-23T10:43:58.916Z,1.40
2019-01-23T10:46:27.361Z,1.50
2019-01-23T10:48:55.778Z,1.70
2019-01-23T10:51:24.290Z,2.00
2019-01-23T10:53:52.698Z,2.10
2019-01-23T10:56:21.125Z,2.20
2019-01-23T10:58:49.554Z,2.40
2019-01-23T11:01:18.000Z,2.40
2019-01-23T11:03:46.419Z,2.50
2019-01-23T11:06:14.844Z,2.60
2019-01-23T11:08:43.324Z,2.70
2019-01-23T11:11:11.752Z,2.90
2019-01-23T11:13:40.177Z,3.20
2019-01-23T11:16:08.650Z,3.40
2019-01-23T11:18:37.139Z,3.40
2019-01-23T11:21:05.650Z,3.50
2019-01-23T11:23:34.113Z,3.70
2019-01-23T11:26:02.677Z,3.60
2019-01-23T11:28:31.099Z,3.70
2019-01-23T11:30:59.540Z,3.60
2019-01-23T11:33:27.946Z,3.70
2019-01-23T11:35:56.373Z,3.90
2019-01-23T11:38:24.777Z,3.80
2019-01-23T11:40:53.285Z,3.90
2019-01-23T11:43:21.771Z,4.10
2019-01-23T11:45:50.211Z,4.00
2019-01-23T11:48:18.638Z,3.80
2019-01-23T11:50:47.087Z,3.80
2019-01-23T11:53:15.538Z,3.70
2019-01-23T11:55:43.978Z,3.90
2019-01-23T11:58:12.392Z,3.90
2019-01-23T12:00:40.923Z,3.90
2019-01-23T12:03:09.324Z,4.00
2019-01-23T12:05:37.737Z,4.00
2019-01-23T12:08:06.242Z,4.00
2019-01-23T12:10:34.672Z,4.10
2019-01-23T12:13:03.169Z,4.10
2019-01-23T12:15:31.580Z,4.00
2019-01-23T12:18:00.091Z,3.90
2019-01-23T12:20:28.516Z,3.70
2019-01-23T12:23:00.007Z,3.60
2019-01-23T12:25:28.661Z,3.60
2019-01-23T12:27:57.124Z,3.60
2019-01-23T12:30:28.456Z,3.80
2019-01-23T12:32:56.881Z,3.80
2019-01-23T12:35:25.292Z,3.80
2019-01-23T12:37:53.892Z,3.90
2019-01-23T12:40:22.302Z,4.00
2019-01-23T12:42:50.909Z,3.80
2019-01-23T12:45:22.148Z,3.60
2019-01-23T12:47:50.729Z,3.50
2019-01-23T12:50:22.188Z,3.20
2019-01-23T12:52:50.627Z,3.20
2019-01-23T12:55:19.034Z,3.20
2019-01-23T12:57:47.599Z,3.20
2019-01-23T13:00:19.184Z,3.30
2019-01-23T13:02:47.617Z,3.40
2019-01-23T13:05:18.670Z,3.40
2019-01-23T13:07:47.569Z,3.60
2019-01-23T13:10:18.317Z,3.60
2019-01-23T13:12:46.885Z,3.70
2019-01-23T13:15:20.334Z,3.70
2019-01-23T13:17:48.827Z,3.70
2019-01-23T13:20:19.503Z,3.50
2019-01-23T13:22:48.016Z,3.40
2019-01-23T13:25:21.843Z,3.10
2019-01-23T13:27:51.023Z,3.00
2019-01-23T13:30:21.472Z,3.00
2019-01-23T13:32:49.970Z,3.00
2019-01-23T13:35:21.187Z,3.00
2019-01-23T13:37:49.671Z,3.10
2019-01-23T13:40:21.095Z,3.10
2019-01-23T13:42:49.536Z,3.10
2019-01-23T13:45:18.126Z,2.90
2019-01-23T13:47:46.553Z,3.00
2019-01-23T13:50:15.529Z,2.90
2019-01-23T13:52:43.962Z,2.50
2019-01-23T13:55:15.450Z,2.60
2019-01-23T13:57:43.954Z,2.50
2019-01-23T14:00:27.657Z,2.50
2019-01-23T14:02:56.425Z,2.60
2019-01-23T14:05:24.972Z,2.50
2019-01-23T14:07:53.431Z,2.50
2019-01-23T14:10:22.402Z,2.30
2019-01-23T14:12:50.933Z,2.20
2019-01-23T14:15:22.663Z,2.10
2019-01-23T14:17:51.096Z,2.00
2019-01-23T14:20:19.573Z,2.10
2019-01-23T14:22:48.011Z,2.10
2019-01-23T14:25:17.275Z,2.30
2019-01-23T14:27:45.799Z,2.40
2019-01-23T14:30:28.937Z,2.50
2019-01-23T14:32:57.366Z,2.40
2019-01-23T14:35:25.945Z,2.50
2019-01-23T14:38:00.506Z,2.50
2019-01-23T14:40:24.529Z,2.50
2019-01-23T14:42:53.026Z,2.40
2019-01-23T14:45:21.892Z,2.50
2019-01-23T14:47:50.340Z,2.50
2019-01-23T14:50:20.507Z,2.60
2019-01-23T14:52:49.366Z,2.50
2019-01-23T14:55:17.772Z,2.50
2019-01-23T14:57:46.287Z,2.50
2019-01-23T15:00:20.947Z,2.30
2019-01-23T15:02:49.523Z,2.40
2019-01-23T15:05:18.069Z,2.40
2019-01-23T15:07:46.564Z,2.50
2019-01-23T15:10:26.557Z,2.60
2019-01-23T15:12:55.322Z,2.60
2019-01-23T15:15:24.178Z,2.40
2019-01-23T15:17:53.252Z,2.30
2019-01-23T15:20:24.208Z,2.10
2019-01-23T15:22:52.660Z,2.10
2019-01-23T15:25:21.075Z,2.00
2019-01-23T15:27:50.435Z,2.00
2019-01-23T15:30:21.859Z,2.10
2019-01-23T15:32:50.384Z,1.90
2019-01-23T15:35:20.047Z,2.10
2019-01-23T15:37:48.482Z,2.00
2019-01-23T15:40:22.612Z,1.90
2019-01-23T15:42:51.052Z,1.90
2019-01-23T15:45:19.461Z,1.80
2019-01-23T15:47:47.898Z,1.90
2019-01-23T15:50:19.149Z,1.80
2019-01-23T15:52:47.641Z,1.80
2019-01-23T15:55:18.706Z,1.80
2019-01-23T15:57:47.213Z,1.70
2019-01-23T16:00:26.823Z,1.80
2019-01-23T16:02:55.392Z,1.60
2019-01-23T16:05:23.893Z,1.70
2019-01-23T16:07:52.385Z,1.70
2019-01-23T16:10:22.937Z,1.70
2019-01-23T16:12:51.364Z,1.70
2019-01-23T16:15:22.117Z,1.70
2019-01-23T16:17:50.545Z,1.60
2019-01-23T16:20:19.203Z,1.70
2019-01-23T16:22:47.756Z,1.70
2019-01-23T16:25:17.212Z,1.70
2019-01-23T16:27:46.304Z,1.60
2019-01-23T16:30:26.818Z,1.60
2019-01-23T16:32:55.237Z,1.70
2019-01-23T16:35:23.712Z,1.60
2019-01-23T16:37:52.227Z,1.70
2019-01-23T16:40:21.306Z,1.80
2019-01-23T16:42:49.723Z,1.80
2019-01-23T16:45:19.890Z,1.70
2019-01-23T16:47:48.445Z,1.70
2019-01-23T16:50:22.470Z,1.70
2019-01-23T16:52:50.960Z,1.70
2019-01-23T16:55:19.519Z,1.60
2019-01-23T16:57:48.361Z,1.50
2019-01-23T17:00:23.592Z,1.50
2019-01-23T17:02:53.321Z,1.50
2019-01-23T17:05:27.632Z,1.60
2019-01-23T17:07:56.709Z,1.60
2019-01-23T17:10:26.964Z,1.60
2019-01-23T17:12:55.545Z,1.60
2019-01-23T17:15:24.318Z,1.60
2019-01-23T17:17:53.093Z,1.60
2019-01-23T17:20:24.581Z,1.70
2019-01-23T17:22:53.011Z,1.70
2019-01-23T17:25:21.582Z,1.60
2019-01-23T17:27:50.003Z,1.60
2019-01-23T17:30:20.881Z,1.80
2019-01-23T17:32:49.357Z,1.70
2019-01-23T17:35:19.527Z,1.70
2019-01-23T17:37:48.010Z,1.60
2019-01-23T17:40:21.089Z,1.50
2019-01-23T17:42:49.560Z,1.50
2019-01-23T17:45:23.376Z,1.50
2019-01-23T17:47:51.795Z,1.50
2019-01-23T17:50:22.366Z,1.30
2019-01-23T17:52:51.417Z,1.30
2019-01-23T17:55:28.512Z,1.30
2019-01-23T17:57:56.980Z,1.20
2019-01-23T18:00:29.268Z,1.00
2019-01-23T18:02:57.751Z,1.00
2019-01-23T18:05:26.244Z,0.90
2019-01-23T18:07:55.511Z,0.90
2019-01-23T18:10:24.132Z,0.80
2019-01-23T18:12:52.536Z,0.60
2019-01-23T18:15:23.905Z,0.60
2019-01-23T18:17:52.437Z,0.60
2019-01-23T18:20:29.416Z,0.60
2019-01-23T18:22:57.894Z,0.60
2019-01-23T18:25:26.475Z,0.60
2019-01-23T18:27:55.159Z,0.60
2019-01-23T18:30:36.465Z,0.70
2019-01-23T18:33:08.131Z,0.70
2019-01-23T18:35:56.425Z,0.70
2019-01-23T18:38:27.927Z,0.70
2019-01-23T18:41:26.726Z,0.70
2019-01-23T18:44:04.224Z,0.80
2019-01-23T18:46:41.333Z,0.80
2019-01-23T18:49:21.671Z,0.80
2019-01-23T18:51:53.171Z,0.90
2019-01-23T18:54:21.592Z,0.80
2019-01-23T18:56:50.008Z,0.80
2019-01-23T18:59:18.447Z,0.80
2019-01-23T19:01:47.803Z,0.80
2019-01-23T19:04:16.223Z,0.80
2019-01-23T19:06:45.597Z,0.90
2019-01-23T19:09:14.024Z,0.90
2019-01-23T19:11:42.448Z,0.90
2019-01-23T19:14:10.857Z,0.90
2019-01-23T19:16:39.372Z,0.90
2019-01-23T19:19:07.914Z,0.90
2019-01-23T19:21:36.350Z,0.90
2019-01-23T19:24:05.615Z,0.90
2019-01-23T19:26:34.041Z,0.80
2019-01-23T19:29:02.471Z,0.80
2019-01-23T19:31:30.894Z,0.80
2019-01-23T19:33:59.442Z,0.80
2019-01-23T19:36:27.960Z,0.70
2019-01-23T19:38:56.387Z,0.70
2019-01-23T19:41:24.831Z,0.80
2019-01-23T19:43:53.248Z,0.90
2019-01-23T19:46:21.664Z,0.80
2019-01-23T19:48:50.156Z,0.80
2019-01-23T19:51:18.610Z,0.80
2019-01-23T19:53:47.023Z,0.80
2019-01-23T19:56:15.471Z,0.80
2019-01-23T19:58:44.162Z,0.80
2019-01-23T20:01:12.596Z,0.80
2019-01-23T20:03:41.027Z,0.60
2019-01-23T20:06:09.466Z,0.60
2019-01-23T20:08:37.889Z,0.60
2019-01-23T20:11:06.461Z,0.60
2019-01-23T20:13:34.878Z,0.60
2019-01-23T20:16:03.407Z,0.40
2019-01-23T20:18:31.826Z,0.40
2019-01-23T20:21:00.596Z,0.30
2019-01-23T20:23:29.073Z,0.30
2019-01-23T20:25:57.500Z,0.20
2019-01-23T20:28:25.923Z,0.30
2019-01-23T20:30:54.393Z,0.40
2019-01-23T20:33:27.994Z,0.40
2019-01-23T20:35:52.951Z,0.40
2019-01-23T20:38:21.353Z,0.40
2019-01-23T20:40:50.749Z,0.50
2019-01-23T20:43:19.174Z,0.50
2019-01-23T20:45:47.597Z,0.40
2019-01-23T20:48:16.023Z,0.40
2019-01-23T20:50:44.443Z,0.40
2019-01-23T20:53:12.947Z,0.40
2019-01-23T20:55:41.705Z,0.40
2019-01-23T20:58:10.586Z,0.40
2019-01-23T21:00:39.265Z,0.40
2019-01-23T21:03:07.763Z,0.40
2019-01-23T21:05:36.237Z,0.40
2019-01-23T21:08:04.836Z,0.30
2019-01-23T21:10:33.261Z,0.30
2019-01-23T21:13:01.680Z,0.20
2019-01-23T21:15:31.107Z,0.20
2019-01-23T21:17:59.642Z,0.10
2019-01-23T21:20:29.213Z,0.20
2019-01-23T21:22:57.637Z,0.10
2019-01-23T21:25:26.077Z,0.10
2019-01-23T21:27:55.486Z,0.10
2019-01-23T21:30:27.967Z,0.10
2019-01-23T21:32:56.469Z,0.10
2019-01-23T21:35:24.961Z,0.00
2019-01-23T21:37:53.444Z,0.00
2019-01-23T21:40:29.832Z,0.00
2019-01-23T21:42:58.262Z,-0.10
2019-01-23T21:45:26.837Z,0.00
2019-01-23T21:47:55.285Z,0.00
2019-01-23T21:50:25.253Z,0.00
2019-01-23T21:52:53.835Z,-0.10
2019-01-23T21:55:23.781Z,0.00
2019-01-23T21:57:52.350Z,0.00
2019-01-23T22:00:35.401Z,-0.10
2019-01-23T22:03:06.172Z,-0.10
2019-01-23T22:05:34.671Z,-0.20
2019-01-23T22:08:03.189Z,-0.20
2019-01-23T22:10:31.615Z,-0.20
2019-01-23T22:13:00.036Z,-0.30
2019-01-23T22:15:30.393Z,-0.30
2019-01-23T22:17:58.898Z,-0.30
2019-01-23T22:20:27.757Z,-0.30
2019-01-23T22:22:56.189Z,-0.30
2019-01-23T22:25:25.562Z,-0.30
2019-01-23T22:27:54.443Z,-0.30
2019-01-23T22:30:43.727Z,-0.30
2019-01-23T22:33:12.225Z,-0.30
2019-01-23T22:35:40.642Z,-0.30
2019-01-23T22:38:09.073Z,-0.30
2019-01-23T22:40:37.484Z,-0.40
2019-01-23T22:43:05.989Z,-0.40
2019-01-23T22:45:34.438Z,-0.30
2019-01-23T22:48:02.856Z,-0.30
2019-01-23T22:50:31.297Z,-0.30
2019-01-23T22:53:00.393Z,-0.30
2019-01-23T22:55:29.061Z,-0.20
2019-01-23T22:57:57.510Z,-0.20
2019-01-23T23:00:30.651Z,-0.30
2019-01-23T23:02:59.552Z,-0.30
2019-01-23T23:05:47.409Z,-0.40
2019-01-23T23:08:15.889Z,-0.40
2019-01-23T23:10:44.438Z,-0.40
2019-01-23T23:13:13.172Z,-0.40
2019-01-23T23:15:41.584Z,-0.40
2019-01-23T23:18:10.174Z,-0.40
2019-01-23T23:20:38.604Z,-0.40
2019-01-23T23:23:07.106Z,-0.50
2019-01-23T23:25:35.520Z,-0.50
2019-01-23T23:28:04.097Z,-0.50
2019-01-23T23:30:52.183Z,-0.40
2019-01-23T23:33:20.623Z,-0.40
2019-01-23T23:35:49.043Z,-0.40
2019-01-23T23:38:17.475Z,-0.50
2019-01-23T23:40:46.036Z,-0.40
2019-01-23T23:43:14.495Z,-0.30
2019-01-23T23:46:02.237Z,-0.40
2019-01-23T23:48:30.670Z,-0.50
2019-01-23T23:50:59.167Z,-0.50
2019-01-23T23:53:27.621Z,-0.40
2019-01-23T23:55:56.059Z,-0.40
2019-01-23T23:58:24.484Z,-0.30
